Time;durP1;ratioP1;P1;durP2;ratioP2;P2;SDS_P1;SDS_P2;PMS_P1;PMS_P2;Temp;Humidity;BMP_temperature;BMP_pressure;BME280_temperature;BME280_humidity;BME280_pressure;Samples;Min_cycle;Max_cycle;Signal;HPM_P1;HPM_P2
2023/07/18 00:00:55;;;;;;;4.73;2.60;;;14.00;94.70;;;;;;2065302;28;20239;-84
2023/07/18 00:01:58;;;;;;;3.43;2.40;;;14.00;94.80;;;;;;2069504;28;20718;-83
2023/07/18 00:02:59;;;;;;;3.58;2.60;;;13.90;94.70;;;;;;2061147;28;20269;-83
2023/07/18 00:04:00;;;;;;;3.50;2.67;;;14.00;94.70;;;;;;2068037;28;20233;-84
2023/07/18 00:05:00;;;;;;;4.77;2.63;;;13.80;94.70;;;;;;2063734;28;21671;-83
2023/07/18 00:06:01;;;;;;;3.30;2.50;;;13.90;95.20;;;;;;2066389;28;20277;-83
2023/07/18 00:07:02;;;;;;;2.93;2.30;;;13.90;95.10;;;;;;2073750;28;20217;-84
2023/07/18 00:08:03;;;;;;;3.20;2.43;;;13.80;95.00;;;;;;2074223;28;20213;-84
2023/07/18 00:09:04;;;;;;;3.83;2.40;;;13.80;95.10;;;;;;2076650;28;20217;-84
2023/07/18 00:10:06;;;;;;;3.43;2.30;;;13.60;95.20;;;;;;2091248;28;20204;-84
2023/07/18 00:11:06;;;;;;;4.28;2.17;;;13.60;95.70;;;;;;2075655;28;20207;-84
2023/07/18 00:12:08;;;;;;;3.77;2.60;;;13.70;95.80;;;;;;2071010;28;20661;-83
2023/07/18 00:13:09;;;;;;;3.05;2.45;;;13.60;95.80;;;;;;2070317;28;20194;-83
2023/07/18 00:14:10;;;;;;;5.03;2.73;;;13.70;95.80;;;;;;2073107;28;20280;-84
2023/07/18 00:15:11;;;;;;;3.37;2.83;;;13.70;95.60;;;;;;2079733;28;20288;-84
2023/07/18 00:16:11;;;;;;;4.60;2.80;;;13.60;95.50;;;;;;2073868;28;20569;-83
2023/07/18 00:17:13;;;;;;;3.50;2.23;;;13.70;95.40;;;;;;2065093;28;20194;-84
2023/07/18 00:18:14;;;;;;;5.20;2.45;;;13.60;95.60;;;;;;2074202;28;20193;-85
2023/07/18 00:19:15;;;;;;;3.25;2.38;;;13.60;95.60;;;;;;2065045;28;20190;-84
2023/07/18 00:20:19;;;;;;;5.20;2.47;;;13.70;95.50;;;;;;2065234;28;20201;-85
2023/07/18 00:21:20;;;;;;;4.97;2.70;;;13.70;95.60;;;;;;2075528;28;20288;-84
2023/07/18 00:22:21;;;;;;;3.75;2.08;;;13.70;95.70;;;;;;2075091;28;20296;-84
2023/07/18 00:23:22;;;;;;;3.60;2.00;;;13.70;96.00;;;;;;2080396;28;20201;-82
2023/07/18 00:24:23;;;;;;;3.90;2.20;;;13.60;96.10;;;;;;2081455;28;20241;-83
2023/07/18 00:25:23;;;;;;;4.87;2.30;;;13.50;96.60;;;;;;2073760;28;20222;-83
2023/07/18 00:26:24;;;;;;;4.27;3.03;;;13.50;96.10;;;;;;2078348;28;20289;-83
2023/07/18 00:27:25;;;;;;;3.40;2.20;;;13.50;95.90;;;;;;2080909;28;20729;-83
2023/07/18 00:28:26;;;;;;;4.87;2.43;;;13.60;95.80;;;;;;2059511;28;20230;-84
2023/07/18 00:29:26;;;;;;;3.63;2.63;;;13.50;95.80;;;;;;2064955;28;20728;-83
2023/07/18 00:30:27;;;;;;;2.60;2.23;;;13.50;95.70;;;;;;2091752;28;20503;-84
2023/07/18 00:31:28;;;;;;;5.80;2.63;;;13.50;95.60;;;;;;2076892;28;20221;-85
2023/07/18 00:32:29;;;;;;;2.83;1.97;;;13.60;95.60;;;;;;2072195;28;20649;-85
2023/07/18 00:33:29;;;;;;;2.60;2.20;;;13.50;95.60;;;;;;2071174;28;20226;-85
2023/07/18 00:34:30;;;;;;;4.00;2.30;;;13.50;95.70;;;;;;2059256;28;20234;-83
2023/07/18 00:35:31;;;;;;;3.70;2.27;;;13.50;95.70;;;;;;2066849;28;20256;-85
2023/07/18 00:36:32;;;;;;;4.35;2.10;;;13.40;95.80;;;;;;2073010;28;20257;-85
2023/07/18 00:37:33;;;;;;;4.73;2.50;;;13.30;95.80;;;;;;2074524;28;20225;-84
2023/07/18 00:38:33;;;;;;;2.90;2.30;;;13.40;95.80;;;;;;2074593;28;20229;-84
2023/07/18 00:39:34;;;;;;;2.77;2.17;;;13.50;96.10;;;;;;2065975;28;20249;-85
2023/07/18 00:40:36;;;;;;;2.83;2.30;;;13.50;96.20;;;;;;2074292;28;20291;-84
2023/07/18 00:41:37;;;;;;;3.58;2.45;;;13.30;96.20;;;;;;2075311;28;20252;-84
2023/07/18 00:42:45;;;;;;;3.43;2.33;;;13.30;96.20;;;;;;2068507;28;20745;-85
2023/07/18 00:43:45;;;;;;;5.20;2.78;;;13.30;96.40;;;;;;2074143;28;20239;-85
2023/07/18 00:44:49;;;;;;;3.30;2.03;;;13.40;96.00;;;;;;2074342;28;20232;-84
2023/07/18 00:45:50;;;;;;;3.05;2.13;;;13.30;96.10;;;;;;2064052;28;20316;-84
2023/07/18 00:46:52;;;;;;;3.50;2.13;;;13.30;95.90;;;;;;2073030;28;20229;-83
2023/07/18 00:47:52;;;;;;;3.42;2.30;;;13.20;95.90;;;;;;2069987;28;20226;-85
2023/07/18 00:48:55;;;;;;;3.37;2.30;;;13.20;95.60;;;;;;2065275;28;20225;-83
2023/07/18 00:49:55;;;;;;;3.88;2.55;;;13.20;96.00;;;;;;2064873;28;20226;-84
2023/07/18 00:50:56;;;;;;;2.53;2.13;;;13.20;95.90;;;;;;2073549;28;20229;-84
2023/07/18 00:51:57;;;;;;;4.10;2.33;;;13.30;96.00;;;;;;2076054;28;20707;-85
2023/07/18 00:53:00;;;;;;;4.05;2.38;;;13.20;96.00;;;;;;2073399;28;20251;-84
2023/07/18 00:54:02;;;;;;;3.50;2.22;;;13.10;96.20;;;;;;2069981;28;20233;-84
2023/07/18 00:55:04;;;;;;;3.10;2.42;;;13.20;96.30;;;;;;2066392;28;20190;-85
2023/07/18 00:56:05;;;;;;;3.15;2.20;;;13.20;95.80;;;;;;2058919;28;20194;-84
2023/07/18 00:57:07;;;;;;;2.65;2.10;;;13.20;95.90;;;;;;2066178;28;20217;-84
2023/07/18 00:58:08;;;;;;;3.58;2.25;;;13.20;96.10;;;;;;2071596;28;20186;-84
2023/07/18 00:59:10;;;;;;;6.33;2.43;;;13.20;96.10;;;;;;2061851;28;20199;-82
2023/07/18 01:00:13;;;;;;;2.85;1.98;;;13.20;96.30;;;;;;2061519;28;20447;-84
2023/07/18 01:01:14;;;;;;;3.35;2.28;;;13.20;96.30;;;;;;2066164;28;20190;-84
2023/07/18 01:02:15;;;;;;;2.80;1.83;;;13.00;96.20;;;;;;2063360;28;20242;-84
2023/07/18 01:03:17;;;;;;;4.80;2.33;;;13.00;96.40;;;;;;2064114;28;20274;-84
2023/07/18 01:04:18;;;;;;;4.72;2.40;;;12.90;96.70;;;;;;2063142;28;20182;-84
2023/07/18 01:05:20;;;;;;;3.67;2.38;;;12.90;96.60;;;;;;2063979;28;20675;-84
2023/07/18 01:06:23;;;;;;;4.38;2.10;;;12.80;96.80;;;;;;2066580;28;20226;-84
2023/07/18 01:07:24;;;;;;;2.53;2.03;;;12.90;96.60;;;;;;2058139;28;20257;-83
2023/07/18 01:08:24;;;;;;;3.87;2.30;;;12.90;96.50;;;;;;2065417;28;20230;-84
2023/07/18 01:09:25;;;;;;;4.57;2.30;;;12.90;96.50;;;;;;2064277;28;20719;-83
2023/07/18 01:10:27;;;;;;;2.07;1.80;;;12.90;96.50;;;;;;2052477;28;20371;-83
2023/07/18 01:11:27;;;;;;;2.35;1.70;;;12.90;96.60;;;;;;2067685;28;20230;-84
2023/07/18 01:12:28;;;;;;;3.03;1.73;;;12.90;96.30;;;;;;2075136;28;20363;-83
2023/07/18 01:13:29;;;;;;;3.53;2.00;;;12.90;96.20;;;;;;2081339;28;20244;-83
2023/07/18 01:14:30;;;;;;;3.10;1.90;;;12.90;96.40;;;;;;2082406;28;20225;-85
2023/07/18 01:15:33;;;;;;;2.75;2.10;;;12.90;96.50;;;;;;2069371;28;20230;-84
2023/07/18 01:16:33;;;;;;;3.00;1.90;;;12.80;96.90;;;;;;2081542;28;20429;-83
2023/07/18 01:17:34;;;;;;;3.83;1.80;;;12.80;96.80;;;;;;2066222;28;20231;-83
2023/07/18 01:18:37;;;;;;;3.40;2.07;;;12.80;96.90;;;;;;2065496;28;20276;-85
2023/07/18 01:19:37;;;;;;;2.78;1.90;;;12.70;97.10;;;;;;2064954;28;20621;-84
2023/07/18 01:20:39;;;;;;;3.03;2.10;;;12.70;97.30;;;;;;2070982;28;20229;-84
2023/07/18 01:21:42;;;;;;;4.78;2.40;;;12.70;97.40;;;;;;2066055;28;20252;-84
2023/07/18 01:22:44;;;;;;;2.55;2.00;;;12.70;97.30;;;;;;2074656;28;20225;-85
2023/07/18 01:23:45;;;;;;;4.65;2.17;;;12.70;97.20;;;;;;2065545;28;20633;-84
2023/07/18 01:24:46;;;;;;;4.85;2.40;;;12.70;97.30;;;;;;2057959;28;20284;-83
2023/07/18 01:25:47;;;;;;;2.77;2.13;;;12.80;97.10;;;;;;2073051;28;20229;-83
2023/07/18 01:26:47;;;;;;;3.13;2.13;;;12.70;97.30;;;;;;2072753;28;20221;-84
2023/07/18 01:27:51;;;;;;;3.23;1.90;;;12.60;97.10;;;;;;2065004;28;20308;-84
2023/07/18 01:28:51;;;;;;;4.35;1.88;;;12.60;97.30;;;;;;2071193;28;20259;-84
2023/07/18 01:29:52;;;;;;;3.07;2.27;;;12.60;97.00;;;;;;2068729;28;20245;-83
2023/07/18 01:30:53;;;;;;;2.78;2.03;;;12.60;97.10;;;;;;2073847;28;20233;-83
2023/07/18 01:31:54;;;;;;;4.83;1.87;;;12.70;96.90;;;;;;2071397;28;20569;-83
2023/07/18 01:32:56;;;;;;;2.60;1.87;;;12.70;96.90;;;;;;2071666;28;20284;-84
2023/07/18 01:33:57;;;;;;;3.08;1.98;;;12.70;97.00;;;;;;2083726;28;20232;-85
2023/07/18 01:35:05;;;;;;;2.73;1.77;;;12.60;97.00;;;;;;2068904;28;20225;-84
2023/07/18 01:36:07;;;;;;;3.25;1.98;;;12.60;97.20;;;;;;2062126;28;20401;-84
2023/07/18 01:37:08;;;;;;;4.90;2.40;;;12.50;97.00;;;;;;2073102;28;20204;-84
2023/07/18 01:38:08;;;;;;;5.07;2.00;;;12.60;97.00;;;;;;2072657;28;20193;-83
2023/07/18 01:39:09;;;;;;;4.03;2.10;;;12.70;97.30;;;;;;2064082;28;20220;-85
2023/07/18 01:40:12;;;;;;;2.83;1.90;;;12.60;97.40;;;;;;2065358;28;20261;-85
2023/07/18 01:41:13;;;;;;;4.78;2.10;;;12.50;97.70;;;;;;2069221;28;20189;-84
2023/07/18 01:42:13;;;;;;;4.10;1.80;;;12.60;97.60;;;;;;2062423;28;20198;-84
2023/07/18 01:43:14;;;;;;;4.93;2.13;;;12.50;97.40;;;;;;2056398;28;20190;-84
2023/07/18 01:44:15;;;;;;;3.57;2.27;;;12.50;97.20;;;;;;2072832;28;20213;-85
2023/07/18 01:45:16;;;;;;;2.90;2.13;;;12.60;97.50;;;;;;2080593;28;20775;-84
2023/07/18 01:46:16;;;;;;;3.60;2.00;;;12.70;96.90;;;;;;2073481;28;20194;-83
2023/07/18 01:47:17;;;;;;;3.57;1.90;;;12.60;97.00;;;;;;2076304;28;20703;-84
2023/07/18 01:48:19;;;;;;;3.33;1.97;;;12.60;96.90;;;;;;2077695;28;20212;-85
2023/07/18 01:49:19;;;;;;;3.22;1.70;;;12.60;96.90;;;;;;2070259;28;20194;-85
2023/07/18 01:50:20;;;;;;;3.03;1.50;;;12.70;96.70;;;;;;2066246;28;20221;-84
2023/07/18 01:51:21;;;;;;;2.50;1.83;;;12.70;96.70;;;;;;2057839;28;20250;-83
2023/07/18 01:52:21;;;;;;;2.30;1.80;;;12.60;96.70;;;;;;2066180;28;20277;-83
2023/07/18 01:53:22;;;;;;;2.37;1.80;;;12.60;96.60;;;;;;2065114;28;20229;-84
2023/07/18 01:54:23;;;;;;;3.70;1.63;;;12.50;96.50;;;;;;2064201;28;20230;-84
2023/07/18 01:55:24;;;;;;;1.97;1.73;;;12.60;96.50;;;;;;2071534;28;20229;-85
2023/07/18 01:56:25;;;;;;;3.27;1.70;;;12.50;96.60;;;;;;2070584;28;20308;-85
2023/07/18 01:57:47;;;;;;;4.20;2.15;;;12.50;96.70;;;;;;2060143;28;20226;-85
2023/07/18 01:58:49;;;;;;;2.15;1.58;;;12.60;96.70;;;;;;2070168;28;20243;-83
2023/07/18 01:59:50;;;;;;;2.53;1.70;;;12.40;96.70;;;;;;2072963;28;20233;-85
2023/07/18 02:00:51;;;;;;;2.60;1.70;;;12.50;96.60;;;;;;2077775;28;20225;-85
2023/07/18 02:01:51;;;;;;;2.80;1.70;;;12.40;96.80;;;;;;2083222;28;20236;-84
2023/07/18 02:02:53;;;;;;;2.83;1.90;;;12.40;96.90;;;;;;2068052;28;20268;-84
2023/07/18 02:03:54;;;;;;;5.25;2.13;;;12.50;97.10;;;;;;2068384;28;20229;-85
2023/07/18 02:04:58;;;;;;;2.93;2.13;;;12.40;97.10;;;;;;2066472;28;20764;-83
2023/07/18 02:05:59;;;;;;;3.65;2.00;;;12.40;97.20;;;;;;2075402;28;20236;-85
2023/07/18 02:07:00;;;;;;;3.67;2.30;;;12.30;97.30;;;;;;2083185;28;20205;-84
2023/07/18 02:08:01;;;;;;;2.67;2.20;;;12.30;97.40;;;;;;2083350;28;20240;-82
2023/07/18 02:09:04;;;;;;;2.55;1.80;;;12.40;97.20;;;;;;2080045;28;20221;-82
2023/07/18 02:10:05;;;;;;;3.33;2.13;;;12.40;97.00;;;;;;2074210;28;20213;-83
2023/07/18 02:11:05;;;;;;;2.72;1.70;;;12.40;96.90;;;;;;2059151;28;20193;-83
2023/07/18 02:12:07;;;;;;;3.23;1.87;;;12.50;96.90;;;;;;2073078;28;20181;-84
2023/07/18 02:13:09;;;;;;;2.60;1.80;;;12.40;97.10;;;;;;2065976;28;20205;-84
2023/07/18 02:14:10;;;;;;;2.08;1.63;;;12.30;97.10;;;;;;2065827;28;20194;-84
2023/07/18 02:15:13;;;;;;;3.40;2.00;;;12.30;97.20;;;;;;2064367;28;20195;-85
2023/07/18 02:16:13;;;;;;;2.30;1.50;;;12.40;97.20;;;;;;2071230;28;20189;-84
2023/07/18 02:17:14;;;;;;;3.83;2.17;;;12.40;97.00;;;;;;2078453;28;20189;-83
2023/07/18 02:18:15;;;;;;;2.17;1.50;;;12.40;97.00;;;;;;2066211;28;20687;-84
2023/07/18 02:19:15;;;;;;;3.37;1.87;;;12.30;97.10;;;;;;2065539;28;20199;-84
2023/07/18 02:20:16;;;;;;;3.67;1.90;;;12.30;97.50;;;;;;2072721;28;20197;-85
2023/07/18 02:21:17;;;;;;;4.33;1.83;;;12.20;97.50;;;;;;2080722;28;20217;-84
2023/07/18 02:22:19;;;;;;;2.37;1.70;;;12.20;97.40;;;;;;2080379;28;20244;-84
2023/07/18 02:23:19;;;;;;;2.53;1.35;;;12.10;97.80;;;;;;2073716;28;20186;-84
2023/07/18 02:24:20;;;;;;;3.40;1.50;;;12.10;97.70;;;;;;2060697;28;20204;-85
2023/07/18 02:25:21;;;;;;;1.53;1.30;;;12.20;97.40;;;;;;2065278;28;20760;-84
2023/07/18 02:26:22;;;;;;;3.73;1.80;;;12.20;96.90;;;;;;2072011;28;20306;-84
2023/07/18 02:27:22;;;;;;;2.43;1.60;;;12.30;97.00;;;;;;2071851;28;20775;-83
2023/07/18 02:28:23;;;;;;;3.63;1.60;;;12.20;97.00;;;;;;2064511;28;20301;-83
2023/07/18 02:29:25;;;;;;;4.00;1.87;;;12.30;97.00;;;;;;2057113;28;20230;-84
2023/07/18 02:30:25;;;;;;;4.00;1.85;;;12.40;96.90;;;;;;2062389;28;20237;-84
2023/07/18 02:31:26;;;;;;;2.93;1.80;;;12.40;96.60;;;;;;2065270;28;20221;-84
2023/07/18 02:32:30;;;;;;;3.47;1.50;;;12.40;96.70;;;;;;2065260;28;20229;-84
2023/07/18 02:33:31;;;;;;;3.92;2.00;;;12.30;97.10;;;;;;2066385;28;20221;-83
2023/07/18 02:34:33;;;;;;;3.40;1.80;;;12.30;97.50;;;;;;2057262;28;20226;-84
2023/07/18 02:35:33;;;;;;;2.70;1.90;;;12.20;97.30;;;;;;2064432;28;20230;-84
2023/07/18 02:36:34;;;;;;;4.80;1.73;;;12.30;97.40;;;;;;2065312;28;20214;-84
2023/07/18 02:37:35;;;;;;;2.27;1.70;;;12.30;97.40;;;;;;2061485;28;20248;-84
2023/07/18 02:38:36;;;;;;;2.73;1.70;;;12.30;98.00;;;;;;2065376;28;20229;-84
2023/07/18 02:39:38;;;;;;;2.83;1.30;;;12.20;97.70;;;;;;2069570;28;20230;-83
2023/07/18 02:40:42;;;;;;;2.00;1.55;;;12.10;97.80;;;;;;2081425;28;20224;-83
2023/07/18 02:41:43;;;;;;;4.45;1.67;;;12.20;98.20;;;;;;2065881;28;20317;-84
2023/07/18 02:42:44;;;;;;;2.80;1.83;;;12.10;98.30;;;;;;2072449;28;20244;-83
2023/07/18 02:43:44;;;;;;;5.60;2.20;;;12.10;98.20;;;;;;2071651;28;20232;-85
2023/07/18 02:44:46;;;;;;;2.70;1.83;;;12.10;97.90;;;;;;2065896;28;20711;-82
2023/07/18 02:45:47;;;;;;;2.40;1.60;;;12.20;97.90;;;;;;2071695;28;20307;-84
2023/07/18 02:46:47;;;;;;;2.53;2.10;;;12.20;97.60;;;;;;2069860;28;20272;-84
2023/07/18 02:47:48;;;;;;;3.33;1.63;;;12.20;97.50;;;;;;2070779;28;20238;-84
2023/07/18 02:48:49;;;;;;;2.80;2.00;;;12.20;97.40;;;;;;2073512;28;20233;-83
2023/07/18 02:49:50;;;;;;;5.73;2.27;;;12.20;97.60;;;;;;2071663;28;20925;-85
2023/07/18 02:50:51;;;;;;;3.65;1.88;;;12.20;97.60;;;;;;2070580;28;20229;-84
2023/07/18 02:51:51;;;;;;;2.77;1.80;;;12.10;97.60;;;;;;2067907;28;20236;-82
2023/07/18 02:52:52;;;;;;;4.47;2.10;;;12.10;97.80;;;;;;2064947;28;20359;-83
2023/07/18 02:53:54;;;;;;;7.20;2.83;;;12.20;97.70;;;;;;2057332;28;20233;-84
2023/07/18 02:54:54;;;;;;;2.78;1.73;;;12.10;97.60;;;;;;2055161;28;20231;-84
2023/07/18 02:55:55;;;;;;;2.33;1.60;;;12.10;97.60;;;;;;2064452;28;20222;-84
2023/07/18 02:56:56;;;;;;;5.10;1.97;;;12.20;97.70;;;;;;2063421;28;20243;-84
2023/07/18 02:57:57;;;;;;;2.80;1.50;;;12.10;97.60;;;;;;2057669;28;20230;-85
2023/07/18 02:58:57;;;;;;;2.70;2.00;;;12.10;97.40;;;;;;2057605;28;20230;-83
2023/07/18 02:59:59;;;;;;;3.07;2.00;;;12.10;97.60;;;;;;2065364;28;20244;-84
2023/07/18 03:00:59;;;;;;;2.45;1.85;;;12.20;97.60;;;;;;2062873;28;20290;-84
2023/07/18 03:02:01;;;;;;;2.37;1.60;;;12.10;98.00;;;;;;2073427;28;20226;-85
2023/07/18 03:03:02;;;;;;;3.10;1.83;;;12.20;97.70;;;;;;2072687;28;20229;-83
2023/07/18 03:04:03;;;;;;;3.88;1.80;;;12.10;97.70;;;;;;2088658;28;20177;-84
2023/07/18 03:05:06;;;;;;;2.67;1.77;;;12.00;98.00;;;;;;2078929;28;20166;-82
2023/07/18 03:06:07;;;;;;;2.92;1.85;;;12.00;98.10;;;;;;2073731;28;20673;-82
2023/07/18 03:07:08;;;;;;;3.40;1.87;;;12.10;97.90;;;;;;2071152;28;20222;-82
2023/07/18 03:08:09;;;;;;;2.63;2.07;;;12.00;97.60;;;;;;2073923;28;20670;-87
2023/07/18 03:09:10;;;;;;;2.97;2.10;;;12.00;97.70;;;;;;2076595;28;20193;-83
2023/07/18 03:10:11;;;;;;;1.80;1.65;;;11.90;97.80;;;;;;2075352;28;20205;-84
2023/07/18 03:11:12;;;;;;;4.17;1.90;;;11.90;97.80;;;;;;2065700;28;20202;-83
2023/07/18 03:12:12;;;;;;;2.73;1.73;;;12.00;97.80;;;;;;2058440;28;20199;-84
2023/07/18 03:13:13;;;;;;;4.37;1.90;;;12.00;97.70;;;;;;2062885;28;20191;-84
2023/07/18 03:14:14;;;;;;;3.20;1.57;;;12.10;97.60;;;;;;2064493;28;20198;-84
2023/07/18 03:15:16;;;;;;;3.50;1.47;;;12.00;97.60;;;;;;2067296;28;20713;-84
2023/07/18 03:16:16;;;;;;;4.25;2.25;;;12.10;97.50;;;;;;2082300;28;20200;-83
2023/07/18 03:17:17;;;;;;;1.93;1.57;;;12.10;97.40;;;;;;2073296;28;20185;-84
2023/07/18 03:18:18;;;;;;;2.37;1.67;;;12.00;97.50;;;;;;2065048;28;20770;-83
2023/07/18 03:19:18;;;;;;;2.87;1.70;;;12.00;97.50;;;;;;2057465;28;20199;-84
2023/07/18 03:20:19;;;;;;;1.73;1.50;;;11.90;97.70;;;;;;2059767;28;20195;-84
2023/07/18 03:21:20;;;;;;;3.77;2.20;;;11.80;97.90;;;;;;2069882;28;20309;-83
2023/07/18 03:22:21;;;;;;;2.10;1.60;;;11.80;98.00;;;;;;2058222;28;20234;-84
2023/07/18 03:23:22;;;;;;;4.93;1.83;;;11.90;97.90;;;;;;2056203;28;20289;-83
2023/07/18 03:24:22;;;;;;;2.80;1.87;;;11.90;97.80;;;;;;2065433;28;20229;-83
2023/07/18 03:25:23;;;;;;;2.83;1.80;;;11.90;97.80;;;;;;2073417;28;20225;-83
2023/07/18 03:26:24;;;;;;;5.63;1.93;;;11.90;97.70;;;;;;2073808;28;20225;-85
2023/07/18 03:27:24;;;;;;;1.97;1.57;;;11.90;97.70;;;;;;2082623;28;20312;-83
2023/07/18 03:28:25;;;;;;;3.10;1.60;;;11.80;97.80;;;;;;2076706;28;20308;-84
2023/07/18 03:29:26;;;;;;;2.20;1.83;;;11.70;98.20;;;;;;2062722;28;20214;-83
2023/07/18 03:30:26;;;;;;;3.73;1.63;;;11.60;98.60;;;;;;2065843;28;20696;-84
2023/07/18 03:31:27;;;;;;;2.77;1.80;;;11.70;99.00;;;;;;2073631;28;20252;-84
2023/07/18 03:32:28;;;;;;;3.63;1.70;;;11.60;99.00;;;;;;2070414;28;20240;-83
2023/07/18 03:33:29;;;;;;;2.17;1.60;;;11.60;99.10;;;;;;2080689;28;20217;-83
2023/07/18 03:34:29;;;;;;;2.70;1.63;;;11.60;99.00;;;;;;2073061;28;20218;-83
2023/07/18 03:35:31;;;;;;;3.63;1.80;;;11.60;98.90;;;;;;2065269;28;20214;-82
2023/07/18 03:36:31;;;;;;;4.35;1.92;;;11.70;99.10;;;;;;2062989;28;20226;-84
2023/07/18 03:37:32;;;;;;;2.07;1.60;;;11.70;98.90;;;;;;2074882;28;20230;-83
2023/07/18 03:38:33;;;;;;;3.28;1.73;;;11.70;98.90;;;;;;2066858;28;20252;-84
2023/07/18 03:39:34;;;;;;;3.70;1.70;;;11.70;98.80;;;;;;2065753;28;20257;-84
2023/07/18 03:40:34;;;;;;;4.77;1.60;;;11.80;98.40;;;;;;2070113;28;20312;-82
2023/07/18 03:41:35;;;;;;;3.37;2.10;;;11.80;98.40;;;;;;2063350;28;20296;-85
2023/07/18 03:42:37;;;;;;;3.80;1.90;;;11.80;98.60;;;;;;2066762;28;20336;-84
2023/07/18 03:43:38;;;;;;;3.58;2.10;;;11.80;98.50;;;;;;2072920;28;20241;-84
2023/07/18 03:44:39;;;;;;;5.23;1.70;;;11.80;98.30;;;;;;2064223;28;20234;-83
2023/07/18 03:45:41;;;;;;;3.00;1.50;;;11.80;98.50;;;;;;2056336;28;20306;-83
2023/07/18 03:46:41;;;;;;;2.03;1.40;;;11.80;98.50;;;;;;2063650;28;20233;-84
2023/07/18 03:47:43;;;;;;;2.10;1.47;;;11.80;98.60;;;;;;2073598;28;20229;-83
2023/07/18 03:48:44;;;;;;;3.35;1.75;;;11.80;98.60;;;;;;2078556;28;20222;-84
2023/07/18 03:49:45;;;;;;;1.80;1.60;;;11.80;98.60;;;;;;2069750;28;20225;-82
2023/07/18 03:50:45;;;;;;;4.87;2.23;;;11.80;98.60;;;;;;2069836;28;20689;-84
2023/07/18 03:51:46;;;;;;;4.50;1.87;;;11.80;98.40;;;;;;2077675;28;20224;-84
2023/07/18 03:52:46;;;;;;;5.33;1.87;;;11.90;98.30;;;;;;2071142;28;20217;-83
2023/07/18 03:53:47;;;;;;;2.50;1.70;;;11.90;98.10;;;;;;2078025;28;20223;-84
2023/07/18 03:54:48;;;;;;;3.07;1.70;;;11.80;98.10;;;;;;2081131;28;20234;-84
2023/07/18 03:55:48;;;;;;;2.70;1.57;;;11.80;98.10;;;;;;2059150;28;20229;-84
2023/07/18 03:56:50;;;;;;;2.87;1.80;;;11.90;97.90;;;;;;2067513;28;20245;-82
2023/07/18 03:57:51;;;;;;;1.98;1.55;;;11.80;98.00;;;;;;2067421;28;20230;-83
2023/07/18 03:58:52;;;;;;;2.87;1.80;;;11.80;98.20;;;;;;2065592;28;20260;-84
2023/07/18 03:59:53;;;;;;;2.00;1.60;;;11.80;98.30;;;;;;2063848;28;20260;-83
2023/07/18 04:00:53;;;;;;;2.80;1.50;;;11.80;98.20;;;;;;2073643;28;20267;-85
2023/07/18 04:01:54;;;;;;;2.43;1.87;;;11.80;98.00;;;;;;2063696;28;20620;-85
2023/07/18 04:02:57;;;;;;;1.87;1.53;;;11.80;98.10;;;;;;2064565;28;20226;-85
2023/07/18 04:03:58;;;;;;;2.28;1.48;;;11.80;98.10;;;;;;2069827;28;20253;-83
2023/07/18 04:04:58;;;;;;;2.03;1.40;;;11.80;98.20;;;;;;2081640;28;20227;-84
2023/07/18 04:05:59;;;;;;;1.60;1.40;;;11.80;98.20;;;;;;2073083;28;20249;-83
2023/07/18 04:07:00;;;;;;;2.57;1.50;;;11.80;98.10;;;;;;2069627;28;20225;-83
2023/07/18 04:08:00;;;;;;;3.03;1.70;;;11.80;98.10;;;;;;2066265;28;20241;-84
2023/07/18 04:09:01;;;;;;;1.67;1.57;;;11.90;98.10;;;;;;2058516;28;20248;-83
2023/07/18 04:10:02;;;;;;;1.80;1.50;;;11.80;98.10;;;;;;2065503;28;20226;-83
2023/07/18 04:11:03;;;;;;;2.63;1.60;;;11.80;98.20;;;;;;2073093;28;20196;-82
2023/07/18 04:12:05;;;;;;;2.87;1.57;;;11.80;97.80;;;;;;2081266;28;20549;-84
2023/07/18 04:13:06;;;;;;;2.28;1.95;;;11.90;98.20;;;;;;2077088;28;20185;-84
2023/07/18 04:14:06;;;;;;;2.60;1.43;;;11.90;98.30;;;;;;2060646;28;20182;-84
2023/07/18 04:15:09;;;;;;;3.20;1.80;;;11.90;98.20;;;;;;2069799;28;20713;-83
2023/07/18 04:16:09;;;;;;;1.60;1.40;;;11.90;98.30;;;;;;2075436;28;20178;-85
2023/07/18 04:17:10;;;;;;;3.27;2.23;;;12.00;98.10;;;;;;2064780;28;20205;-84
2023/07/18 04:18:11;;;;;;;3.23;1.50;;;12.00;97.80;;;;;;2056678;28;20191;-84
2023/07/18 04:19:11;;;;;;;3.03;1.40;;;12.00;97.80;;;;;;2064235;28;20187;-85
2023/07/18 04:20:13;;;;;;;2.73;1.70;;;12.00;97.70;;;;;;2073356;28;20228;-85
2023/07/18 04:21:14;;;;;;;2.35;1.60;;;12.10;97.70;;;;;;2069644;28;20182;-85
2023/07/18 04:22:14;;;;;;;4.23;2.00;;;12.00;97.70;;;;;;2069115;28;20187;-84
2023/07/18 04:23:16;;;;;;;4.43;1.53;;;12.00;97.80;;;;;;2073133;28;20185;-85
2023/07/18 04:24:17;;;;;;;2.22;1.55;;;11.90;97.90;;;;;;2071935;28;20185;-84
2023/07/18 04:25:18;;;;;;;2.90;2.07;;;12.00;98.10;;;;;;2067405;28;20301;-84
2023/07/18 04:26:18;;;;;;;3.37;1.57;;;12.00;98.00;;;;;;2062974;28;20247;-84
2023/07/18 04:27:19;;;;;;;2.10;1.33;;;12.00;98.00;;;;;;2060463;28;20179;-84
2023/07/18 04:28:20;;;;;;;1.93;1.53;;;12.00;97.70;;;;;;2053192;28;20278;-85
2023/07/18 04:29:21;;;;;;;2.50;1.70;;;12.00;97.90;;;;;;2068640;28;20300;-84
2023/07/18 04:30:21;;;;;;;3.10;1.80;;;11.90;97.80;;;;;;2073470;28;20319;-84
2023/07/18 04:31:22;;;;;;;4.27;1.70;;;11.90;98.20;;;;;;2063739;28;20233;-85
2023/07/18 04:32:23;;;;;;;4.50;1.80;;;11.90;98.30;;;;;;2077396;28;20228;-83
2023/07/18 04:33:25;;;;;;;3.25;1.70;;;12.00;98.10;;;;;;2077566;28;20218;-84
2023/07/18 04:34:25;;;;;;;3.38;1.83;;;12.10;98.10;;;;;;2072054;28;21061;-85
2023/07/18 04:35:26;;;;;;;3.10;1.70;;;12.10;98.10;;;;;;2064945;28;20219;-84
2023/07/18 04:36:27;;;;;;;2.03;1.80;;;12.10;97.90;;;;;;2056680;28;20912;-85
2023/07/18 04:37:28;;;;;;;2.23;1.67;;;12.00;98.10;;;;;;2055374;28;20331;-85
2023/07/18 04:38:28;;;;;;;3.63;1.60;;;12.00;98.10;;;;;;2064531;28;20218;-84
2023/07/18 04:39:30;;;;;;;2.80;1.60;;;12.20;97.70;;;;;;2068266;28;20252;-85
2023/07/18 04:40:31;;;;;;;2.15;1.50;;;12.10;97.50;;;;;;2060998;28;20221;-84
2023/07/18 04:41:31;;;;;;;2.63;1.67;;;12.20;97.60;;;;;;2070712;28;20730;-85
2023/07/18 04:42:33;;;;;;;2.37;1.53;;;12.20;97.50;;;;;;2074904;28;20248;-84
2023/07/18 04:43:34;;;;;;;3.35;1.60;;;12.20;97.40;;;;;;2065648;28;20246;-84
2023/07/18 04:44:34;;;;;;;3.57;1.77;;;12.30;97.10;;;;;;2068275;28;20210;-85
2023/07/18 04:45:46;;;;;;;2.20;1.50;;;12.30;96.80;;;;;;2059499;28;20246;-85
2023/07/18 04:46:47;;;;;;;2.65;1.95;;;12.30;97.10;;;;;;2075525;28;20616;-85
2023/07/18 04:47:47;;;;;;;2.97;1.63;;;12.30;97.10;;;;;;2065373;28;20230;-84
2023/07/18 04:48:48;;;;;;;2.57;1.80;;;12.30;97.10;;;;;;2066295;28;20600;-85
2023/07/18 04:49:49;;;;;;;3.70;1.83;;;12.40;96.90;;;;;;2058233;28;20282;-85
2023/07/18 04:51:00;;;;;;;3.57;1.57;;;12.40;96.90;;;;;;2073160;28;20225;-85
2023/07/18 04:52:00;;;;;;;3.47;1.65;;;12.50;96.70;;;;;;2076413;28;20233;-84
2023/07/18 04:53:01;;;;;;;3.40;1.83;;;12.60;96.50;;;;;;2076330;28;20269;-85
2023/07/18 04:54:02;;;;;;;2.43;1.97;;;12.60;96.30;;;;;;2067745;28;20748;-83
2023/07/18 04:55:04;;;;;;;3.15;1.52;;;12.70;96.10;;;;;;2057681;28;20182;-85
2023/07/18 04:56:05;;;;;;;2.55;1.67;;;12.80;95.60;;;;;;2062826;28;20565;-84
2023/07/18 04:57:06;;;;;;;3.00;1.48;;;12.80;95.50;;;;;;2063415;28;20202;-84
2023/07/18 04:58:08;;;;;;;3.60;1.77;;;12.80;95.20;;;;;;2057033;28;20302;-84
2023/07/18 04:59:08;;;;;;;1.90;1.60;;;12.90;95.50;;;;;;2063479;28;20213;-83
2023/07/18 05:00:10;;;;;;;2.00;1.70;;;12.90;95.40;;;;;;2060409;28;20234;-84
2023/07/18 05:01:11;;;;;;;2.17;1.65;;;12.90;95.50;;;;;;2068319;28;20197;-84
2023/07/18 05:02:11;;;;;;;2.90;1.90;;;12.90;95.30;;;;;;2072717;28;20745;-85
2023/07/18 05:03:12;;;;;;;3.30;1.70;;;13.00;95.40;;;;;;2081603;28;20204;-84
2023/07/18 05:04:13;;;;;;;2.63;1.60;;;13.00;95.20;;;;;;2076220;28;20201;-84
2023/07/18 05:05:13;;;;;;;1.90;1.40;;;13.10;94.80;;;;;;2071402;28;20693;-84
2023/07/18 05:06:14;;;;;;;2.03;1.60;;;12.90;95.00;;;;;;2062359;28;20191;-84
2023/07/18 05:07:15;;;;;;;2.77;1.53;;;12.90;95.10;;;;;;2069977;28;20190;-86
2023/07/18 05:08:16;;;;;;;1.90;1.40;;;13.00;95.50;;;;;;2079457;28;20276;-84
2023/07/18 05:09:17;;;;;;;5.05;1.90;;;13.10;95.80;;;;;;2068160;28;20182;-85
2023/07/18 05:10:18;;;;;;;2.47;1.50;;;13.10;95.70;;;;;;2067883;28;20244;-85
2023/07/18 05:11:19;;;;;;;2.50;1.43;;;13.10;95.40;;;;;;2058285;28;20191;-85
2023/07/18 05:12:19;;;;;;;3.33;2.23;;;13.20;95.10;;;;;;2055278;28;20190;-84
2023/07/18 05:13:20;;;;;;;2.03;1.40;;;13.20;95.40;;;;;;2057388;28;20197;-85
2023/07/18 05:14:21;;;;;;;1.63;1.40;;;13.20;95.40;;;;;;2064535;28;20230;-85
2023/07/18 05:15:22;;;;;;;2.17;1.63;;;13.30;95.00;;;;;;2069051;28;20217;-84
2023/07/18 05:16:24;;;;;;;3.55;1.48;;;13.40;94.80;;;;;;2065302;28;20317;-85
2023/07/18 05:17:24;;;;;;;2.65;1.42;;;13.50;94.40;;;;;;2070856;28;20658;-86
2023/07/18 05:18:25;;;;;;;3.93;1.83;;;13.50;94.30;;;;;;2075951;28;20244;-85
2023/07/18 05:19:26;;;;;;;2.93;1.40;;;13.60;94.40;;;;;;2065618;28;20210;-85